sensor_id;sensor_type;location;lat;lon;timestamp;pressure;altitude;pressure_sealevel;temperature;humidity
37610;BME280;23457;51.966;8.230;2023-04-19T00:01:26;102076.09;;;11.64;79.49
37610;BME280;23457;51.966;8.230;2023-04-19T00:03:54;102079.91;;;11.48;77.17
37610;BME280;23457;51.966;8.230;2023-04-19T00:06:22;102067.44;;;11.65;76.94
37610;BME280;23457;51.966;8.230;2023-04-19T00:08:50;102064.03;;;11.68;76.62
37610;BME280;23457;51.966;8.230;2023-04-19T00:11:16;102063.16;;;11.67;76.34
37610;BME280;23457;51.966;8.230;2023-04-19T00:13:43;102067.44;;;11.40;76.34
37610;BME280;23457;51.966;8.230;2023-04-19T00:16:09;102057.25;;;11.46;76.34
37610;BME280;23457;51.966;8.230;2023-04-19T00:18:36;102059.72;;;11.68;75.28
37610;BME280;23457;51.966;8.230;2023-04-19T00:21:04;102063.16;;;11.67;75.36
37610;BME280;23457;51.966;8.230;2023-04-19T00:23:31;102059.56;;;11.37;74.70
37610;BME280;23457;51.966;8.230;2023-04-19T00:25:57;102059.13;;;11.50;73.30
37610;BME280;23457;51.966;8.230;2023-04-19T00:28:24;102056.72;;;11.56;73.28
37610;BME280;23457;51.966;8.230;2023-04-19T00:30:51;102060.03;;;11.76;72.57
37610;BME280;23457;51.966;8.230;2023-04-19T00:33:18;102062.63;;;11.51;73.55
37610;BME280;23457;51.966;8.230;2023-04-19T00:35:44;102070.31;;;11.47;75.50
37610;BME280;23457;51.966;8.230;2023-04-19T00:38:12;102074.16;;;11.59;75.42
37610;BME280;23457;51.966;8.230;2023-04-19T00:40:38;102072.56;;;11.62;75.51
37610;BME280;23457;51.966;8.230;2023-04-19T00:43:05;102059.22;;;11.53;75.94
37610;BME280;23457;51.966;8.230;2023-04-19T00:45:33;102071.16;;;11.46;76.63
37610;BME280;23457;51.966;8.230;2023-04-19T00:48:01;102066.72;;;11.44;77.08
37610;BME280;23457;51.966;8.230;2023-04-19T00:50:28;102061.16;;;11.33;78.14
37610;BME280;23457;51.966;8.230;2023-04-19T00:52:56;102062.97;;;11.36;78.39
37610;BME280;23457;51.966;8.230;2023-04-19T00:55:24;102059.03;;;11.47;78.26
37610;BME280;23457;51.966;8.230;2023-04-19T00:57:50;102059.59;;;11.38;79.30
37610;BME280;23457;51.966;8.230;2023-04-19T01:00:18;102061.38;;;11.39;79.24
37610;BME280;23457;51.966;8.230;2023-04-19T01:02:45;102059.06;;;11.23;79.46
37610;BME280;23457;51.966;8.230;2023-04-19T01:05:13;102063.09;;;11.15;79.95
37610;BME280;23457;51.966;8.230;2023-04-19T01:07:41;102058.78;;;11.14;79.73
37610;BME280;23457;51.966;8.230;2023-04-19T01:10:08;102054.88;;;11.27;79.52
37610;BME280;23457;51.966;8.230;2023-04-19T01:12:35;102066.47;;;11.36;79.45
37610;BME280;23457;51.966;8.230;2023-04-19T01:15:02;102065.16;;;11.24;79.96
37610;BME280;23457;51.966;8.230;2023-04-19T01:17:31;102064.59;;;11.32;79.07
37610;BME280;23457;51.966;8.230;2023-04-19T01:20:02;102064.00;;;11.16;78.96
37610;BME280;23457;51.966;8.230;2023-04-19T01:22:29;102061.81;;;11.28;78.50
37610;BME280;23457;51.966;8.230;2023-04-19T01:24:57;102057.78;;;10.87;78.78
37610;BME280;23457;51.966;8.230;2023-04-19T01:27:24;102054.03;;;11.04;78.84
37610;BME280;23457;51.966;8.230;2023-04-19T01:29:51;102058.41;;;11.05;78.20
37610;BME280;23457;51.966;8.230;2023-04-19T01:32:17;102063.28;;;11.20;77.60
37610;BME280;23457;51.966;8.230;2023-04-19T01:34:44;102050.38;;;10.97;77.62
37610;BME280;23457;51.966;8.230;2023-04-19T01:37:10;102051.63;;;11.08;77.38
37610;BME280;23457;51.966;8.230;2023-04-19T01:39:40;102046.25;;;11.04;77.76
37610;BME280;23457;51.966;8.230;2023-04-19T01:42:06;102049.72;;;11.04;77.34
37610;BME280;23457;51.966;8.230;2023-04-19T01:44:35;102044.34;;;10.74;77.53
37610;BME280;23457;51.966;8.230;2023-04-19T01:47:03;102049.25;;;10.67;78.05
37610;BME280;23457;51.966;8.230;2023-04-19T01:49:31;102050.81;;;10.62;78.88
37610;BME280;23457;51.966;8.230;2023-04-19T01:51:57;102051.31;;;10.53;78.76
37610;BME280;23457;51.966;8.230;2023-04-19T01:54:25;102055.00;;;10.58;78.46
37610;BME280;23457;51.966;8.230;2023-04-19T01:56:52;102050.19;;;10.69;78.48
37610;BME280;23457;51.966;8.230;2023-04-19T01:59:19;102058.09;;;10.72;77.52
37610;BME280;23457;51.966;8.230;2023-04-19T02:01:46;102051.56;;;10.83;77.43
37610;BME280;23457;51.966;8.230;2023-04-19T02:04:12;102059.31;;;10.58;77.10
37610;BME280;23457;51.966;8.230;2023-04-19T02:06:39;102062.06;;;10.38;75.24
37610;BME280;23457;51.966;8.230;2023-04-19T02:09:06;102055.75;;;10.56;75.19
37610;BME280;23457;51.966;8.230;2023-04-19T02:11:33;102061.97;;;10.59;73.83
37610;BME280;23457;51.966;8.230;2023-04-19T02:14:00;102053.16;;;10.56;73.17
37610;BME280;23457;51.966;8.230;2023-04-19T02:16:27;102052.22;;;10.54;72.81
37610;BME280;23457;51.966;8.230;2023-04-19T02:18:53;102043.16;;;10.66;72.52
37610;BME280;23457;51.966;8.230;2023-04-19T02:21:20;102049.31;;;10.68;71.95
37610;BME280;23457;51.966;8.230;2023-04-19T02:23:46;102049.97;;;10.63;71.79
37610;BME280;23457;51.966;8.230;2023-04-19T02:26:14;102054.00;;;10.55;71.77
37610;BME280;23457;51.966;8.230;2023-04-19T02:28:41;102052.66;;;10.66;71.32
37610;BME280;23457;51.966;8.230;2023-04-19T02:31:08;102049.31;;;10.22;72.70
37610;BME280;23457;51.966;8.230;2023-04-19T02:33:35;102051.66;;;10.38;71.97
37610;BME280;23457;51.966;8.230;2023-04-19T02:36:02;102048.13;;;10.36;70.71
37610;BME280;23457;51.966;8.230;2023-04-19T02:38:29;102051.06;;;10.23;70.89
37610;BME280;23457;51.966;8.230;2023-04-19T02:40:55;102042.28;;;10.20;70.14
37610;BME280;23457;51.966;8.230;2023-04-19T02:43:22;102048.00;;;10.33;69.23
37610;BME280;23457;51.966;8.230;2023-04-19T02:45:49;102046.50;;;10.40;66.80
37610;BME280;23457;51.966;8.230;2023-04-19T02:48:16;102044.50;;;10.33;67.20
37610;BME280;23457;51.966;8.230;2023-04-19T02:50:43;102051.81;;;10.43;64.73
37610;BME280;23457;51.966;8.230;2023-04-19T02:53:10;102051.06;;;10.02;64.25
37610;BME280;23457;51.966;8.230;2023-04-19T02:55:37;102053.03;;;9.86;64.34
37610;BME280;23457;51.966;8.230;2023-04-19T02:58:09;102051.75;;;9.97;64.08
37610;BME280;23457;51.966;8.230;2023-04-19T03:00:42;102054.13;;;10.13;62.65
37610;BME280;23457;51.966;8.230;2023-04-19T03:03:13;102052.38;;;9.91;60.45
37610;BME280;23457;51.966;8.230;2023-04-19T03:05:40;102060.50;;;9.78;60.13
37610;BME280;23457;51.966;8.230;2023-04-19T03:08:06;102057.34;;;9.64;59.13
37610;BME280;23457;51.966;8.230;2023-04-19T03:10:33;102062.00;;;9.52;58.81
37610;BME280;23457;51.966;8.230;2023-04-19T03:13:00;102059.56;;;9.34;57.85
37610;BME280;23457;51.966;8.230;2023-04-19T03:15:28;102060.84;;;9.25;57.60
37610;BME280;23457;51.966;8.230;2023-04-19T03:17:55;102058.47;;;9.29;56.64
37610;BME280;23457;51.966;8.230;2023-04-19T03:20:21;102064.81;;;9.36;55.49
37610;BME280;23457;51.966;8.230;2023-04-19T03:22:48;102068.59;;;9.23;54.80
37610;BME280;23457;51.966;8.230;2023-04-19T03:25:16;102068.84;;;9.29;54.47
37610;BME280;23457;51.966;8.230;2023-04-19T03:27:47;102063.81;;;9.13;54.47
37610;BME280;23457;51.966;8.230;2023-04-19T03:30:18;102072.75;;;9.20;53.89
37610;BME280;23457;51.966;8.230;2023-04-19T03:32:46;102071.81;;;9.18;53.66
37610;BME280;23457;51.966;8.230;2023-04-19T03:35:13;102069.06;;;9.15;53.42
37610;BME280;23457;51.966;8.230;2023-04-19T03:37:40;102072.22;;;9.08;53.54
37610;BME280;23457;51.966;8.230;2023-04-19T03:40:08;102071.22;;;9.25;54.10
37610;BME280;23457;51.966;8.230;2023-04-19T03:42:39;102066.63;;;9.18;52.82
37610;BME280;23457;51.966;8.230;2023-04-19T03:45:13;102064.59;;;9.11;53.30
37610;BME280;23457;51.966;8.230;2023-04-19T03:47:45;102063.63;;;9.09;53.42
37610;BME280;23457;51.966;8.230;2023-04-19T03:50:11;102066.91;;;9.05;53.28
37610;BME280;23457;51.966;8.230;2023-04-19T03:52:41;102070.38;;;9.05;52.81
37610;BME280;23457;51.966;8.230;2023-04-19T03:55:10;102073.47;;;8.96;53.52
37610;BME280;23457;51.966;8.230;2023-04-19T03:57:39;102069.72;;;9.09;53.36
37610;BME280;23457;51.966;8.230;2023-04-19T04:00:32;102071.13;;;9.03;53.89
37610;BME280;23457;51.966;8.230;2023-04-19T04:02:59;102071.50;;;8.91;54.07
37610;BME280;23457;51.966;8.230;2023-04-19T04:05:26;102075.47;;;8.83;54.08
37610;BME280;23457;51.966;8.230;2023-04-19T04:07:54;102073.03;;;8.87;54.23
37610;BME280;23457;51.966;8.230;2023-04-19T04:10:22;102068.34;;;8.79;54.56
37610;BME280;23457;51.966;8.230;2023-04-19T04:12:49;102079.59;;;8.79;55.05
37610;BME280;23457;51.966;8.230;2023-04-19T04:15:22;102076.75;;;8.73;54.68
37610;BME280;23457;51.966;8.230;2023-04-19T04:17:51;102079.41;;;8.55;55.02
37610;BME280;23457;51.966;8.230;2023-04-19T04:20:19;102072.91;;;8.46;54.86
37610;BME280;23457;51.966;8.230;2023-04-19T04:22:46;102078.41;;;8.16;55.17
37610;BME280;23457;51.966;8.230;2023-04-19T04:25:15;102078.75;;;8.42;55.43
37610;BME280;23457;51.966;8.230;2023-04-19T04:27:43;102082.63;;;8.32;55.00
37610;BME280;23457;51.966;8.230;2023-04-19T04:30:14;102080.94;;;8.33;54.45
37610;BME280;23457;51.966;8.230;2023-04-19T04:32:42;102080.47;;;8.41;54.45
37610;BME280;23457;51.966;8.230;2023-04-19T04:35:10;102087.28;;;8.21;54.01
37610;BME280;23457;51.966;8.230;2023-04-19T04:37:46;102092.81;;;8.29;54.36
37610;BME280;23457;51.966;8.230;2023-04-19T04:40:14;102098.25;;;8.34;54.63
37610;BME280;23457;51.966;8.230;2023-04-19T04:42:41;102102.91;;;8.23;54.39
37610;BME280;23457;51.966;8.230;2023-04-19T04:45:08;102100.91;;;8.35;54.78
37610;BME280;23457;51.966;8.230;2023-04-19T04:47:37;102107.25;;;8.06;54.74
37610;BME280;23457;51.966;8.230;2023-04-19T04:50:05;102108.94;;;8.23;54.41
37610;BME280;23457;51.966;8.230;2023-04-19T04:52:32;102106.06;;;8.17;54.64
37610;BME280;23457;51.966;8.230;2023-04-19T04:55:07;102107.53;;;8.12;55.03
37610;BME280;23457;51.966;8.230;2023-04-19T04:57:39;102106.66;;;7.76;55.52
37610;BME280;23457;51.966;8.230;2023-04-19T05:00:11;102112.88;;;7.80;56.02
37610;BME280;23457;51.966;8.230;2023-04-19T05:02:46;102113.31;;;7.71;56.88
37610;BME280;23457;51.966;8.230;2023-04-19T05:05:12;102112.88;;;7.80;56.46
37610;BME280;23457;51.966;8.230;2023-04-19T05:07:39;102110.34;;;7.81;56.91
37610;BME280;23457;51.966;8.230;2023-04-19T05:10:06;102112.50;;;7.90;56.66
37610;BME280;23457;51.966;8.230;2023-04-19T05:12:41;102110.94;;;7.76;57.79
37610;BME280;23457;51.966;8.230;2023-04-19T05:15:08;102111.00;;;7.77;58.17
37610;BME280;23457;51.966;8.230;2023-04-19T05:17:39;102114.00;;;7.85;58.49
37610;BME280;23457;51.966;8.230;2023-04-19T05:20:09;102112.03;;;7.63;58.47
37610;BME280;23457;51.966;8.230;2023-04-19T05:22:36;102105.88;;;7.61;59.21
37610;BME280;23457;51.966;8.230;2023-04-19T05:25:08;102113.69;;;7.45;59.97
37610;BME280;23457;51.966;8.230;2023-04-19T05:27:36;102115.63;;;7.49;60.13
37610;BME280;23457;51.966;8.230;2023-04-19T05:30:05;102112.00;;;7.45;60.46
37610;BME280;23457;51.966;8.230;2023-04-19T05:32:33;102116.50;;;7.49;60.50
37610;BME280;23457;51.966;8.230;2023-04-19T05:35:03;102116.81;;;7.55;59.96
37610;BME280;23457;51.966;8.230;2023-04-19T05:37:29;102118.34;;;7.34;60.58
37610;BME280;23457;51.966;8.230;2023-04-19T05:39:56;102132.38;;;7.23;61.04
37610;BME280;23457;51.966;8.230;2023-04-19T05:42:24;102127.84;;;7.35;60.86
37610;BME280;23457;51.966;8.230;2023-04-19T05:44:51;102126.91;;;7.17;61.99
37610;BME280;23457;51.966;8.230;2023-04-19T05:47:18;102119.78;;;7.29;61.56
37610;BME280;23457;51.966;8.230;2023-04-19T05:50:05;102116.88;;;7.23;61.79
37610;BME280;23457;51.966;8.230;2023-04-19T05:52:39;102107.16;;;7.35;60.72
37610;BME280;23457;51.966;8.230;2023-04-19T05:55:07;102116.03;;;7.57;61.11
37610;BME280;23457;51.966;8.230;2023-04-19T05:57:38;102117.31;;;7.48;60.54
37610;BME280;23457;51.966;8.230;2023-04-19T06:00:05;102121.28;;;7.58;60.49
37610;BME280;23457;51.966;8.230;2023-04-19T06:02:57;102125.75;;;7.44;60.36
37610;BME280;23457;51.966;8.230;2023-04-19T06:05:25;102121.66;;;7.32;61.00
37610;BME280;23457;51.966;8.230;2023-04-19T06:07:52;102120.94;;;7.34;61.74
37610;BME280;23457;51.966;8.230;2023-04-19T06:10:24;102116.22;;;7.43;61.60
37610;BME280;23457;51.966;8.230;2023-04-19T06:13:02;102111.94;;;7.62;60.83
37610;BME280;23457;51.966;8.230;2023-04-19T06:15:29;102117.72;;;7.74;60.63
37610;BME280;23457;51.966;8.230;2023-04-19T06:17:56;102112.84;;;7.62;60.40
37610;BME280;23457;51.966;8.230;2023-04-19T06:20:25;102113.88;;;7.66;60.93
37610;BME280;23457;51.966;8.230;2023-04-19T06:22:51;102117.28;;;7.65;60.82
37610;BME280;23457;51.966;8.230;2023-04-19T06:25:18;102109.59;;;7.66;60.56
37610;BME280;23457;51.966;8.230;2023-04-19T06:27:44;102110.59;;;7.52;60.45
37610;BME280;23457;51.966;8.230;2023-04-19T06:30:11;102110.88;;;7.40;61.48
37610;BME280;23457;51.966;8.230;2023-04-19T06:32:40;102118.78;;;7.60;61.23
37610;BME280;23457;51.966;8.230;2023-04-19T06:35:07;102113.31;;;7.71;61.38
37610;BME280;23457;51.966;8.230;2023-04-19T06:37:33;102115.81;;;7.70;61.00
37610;BME280;23457;51.966;8.230;2023-04-19T06:40:01;102109.34;;;7.62;61.29
37610;BME280;23457;51.966;8.230;2023-04-19T06:42:28;102117.94;;;7.61;62.87
37610;BME280;23457;51.966;8.230;2023-04-19T06:44:54;102111.00;;;7.60;61.88
37610;BME280;23457;51.966;8.230;2023-04-19T06:47:22;102107.97;;;7.68;61.88
37610;BME280;23457;51.966;8.230;2023-04-19T06:49:49;102107.75;;;7.99;60.61
37610;BME280;23457;51.966;8.230;2023-04-19T06:52:15;102109.34;;;7.96;60.83
37610;BME280;23457;51.966;8.230;2023-04-19T06:54:47;102102.22;;;7.91;61.63
37610;BME280;23457;51.966;8.230;2023-04-19T06:57:15;102109.69;;;7.68;61.00
37610;BME280;23457;51.966;8.230;2023-04-19T06:59:42;102107.25;;;7.88;60.63
37610;BME280;23457;51.966;8.230;2023-04-19T07:02:09;102112.13;;;8.00;60.22
37610;BME280;23457;51.966;8.230;2023-04-19T07:04:36;102111.03;;;7.95;60.31
37610;BME280;23457;51.966;8.230;2023-04-19T07:07:03;102106.66;;;7.94;60.54
37610;BME280;23457;51.966;8.230;2023-04-19T07:09:29;102102.91;;;8.23;59.31
37610;BME280;23457;51.966;8.230;2023-04-19T07:11:56;102106.03;;;8.34;58.56
37610;BME280;23457;51.966;8.230;2023-04-19T07:14:23;102103.75;;;8.23;59.16
37610;BME280;23457;51.966;8.230;2023-04-19T07:16:49;102101.91;;;8.39;58.56
37610;BME280;23457;51.966;8.230;2023-04-19T07:19:18;102109.56;;;8.36;59.32
37610;BME280;23457;51.966;8.230;2023-04-19T07:21:45;102098.38;;;8.19;58.62
37610;BME280;23457;51.966;8.230;2023-04-19T07:24:12;102107.84;;;8.18;58.32
37610;BME280;23457;51.966;8.230;2023-04-19T07:26:39;102107.25;;;8.42;58.43
37610;BME280;23457;51.966;8.230;2023-04-19T07:29:06;102091.28;;;8.33;59.26
37610;BME280;23457;51.966;8.230;2023-04-19T07:31:32;102102.94;;;8.24;58.63
37610;BME280;23457;51.966;8.230;2023-04-19T07:33:59;102095.69;;;8.53;58.15
37610;BME280;23457;51.966;8.230;2023-04-19T07:36:26;102098.00;;;8.66;57.84
37610;BME280;23457;51.966;8.230;2023-04-19T07:38:53;102097.69;;;8.58;58.12
37610;BME280;23457;51.966;8.230;2023-04-19T07:41:19;102098.69;;;8.62;58.77
37610;BME280;23457;51.966;8.230;2023-04-19T07:43:46;102097.19;;;8.67;57.69
37610;BME280;23457;51.966;8.230;2023-04-19T07:46:13;102096.78;;;8.58;57.83
37610;BME280;23457;51.966;8.230;2023-04-19T07:48:41;102100.28;;;8.41;58.56
37610;BME280;23457;51.966;8.230;2023-04-19T07:51:13;102095.28;;;8.63;58.01
37610;BME280;23457;51.966;8.230;2023-04-19T07:53:40;102094.16;;;8.39;57.63
37610;BME280;23457;51.966;8.230;2023-04-19T07:56:07;102093.50;;;8.43;57.46
37610;BME280;23457;51.966;8.230;2023-04-19T07:58:37;102095.53;;;8.50;57.48
37610;BME280;23457;51.966;8.230;2023-04-19T08:01:08;102087.97;;;8.54;57.51
37610;BME280;23457;51.966;8.230;2023-04-19T08:03:35;102085.13;;;8.68;57.39
37610;BME280;23457;51.966;8.230;2023-04-19T08:06:04;102084.38;;;8.70;56.39
37610;BME280;23457;51.966;8.230;2023-04-19T08:08:32;102083.91;;;8.79;56.08
37610;BME280;23457;51.966;8.230;2023-04-19T08:11:00;102085.72;;;9.01;55.75
37610;BME280;23457;51.966;8.230;2023-04-19T08:13:28;102080.16;;;8.91;56.30
37610;BME280;23457;51.966;8.230;2023-04-19T08:15:55;102083.34;;;9.05;56.69
37610;BME280;23457;51.966;8.230;2023-04-19T08:18:25;102083.06;;;9.18;55.66
37610;BME280;23457;51.966;8.230;2023-04-19T08:20:52;102081.59;;;9.25;55.09
37610;BME280;23457;51.966;8.230;2023-04-19T08:23:19;102092.47;;;9.16;54.71
37610;BME280;23457;51.966;8.230;2023-04-19T08:25:51;102085.69;;;9.39;54.98
37610;BME280;23457;51.966;8.230;2023-04-19T08:28:18;102079.88;;;9.45;55.16
37610;BME280;23457;51.966;8.230;2023-04-19T08:30:44;102085.50;;;9.76;54.49
37610;BME280;23457;51.966;8.230;2023-04-19T08:33:11;102080.75;;;9.66;52.95
37610;BME280;23457;51.966;8.230;2023-04-19T08:35:38;102080.13;;;9.72;52.87
37610;BME280;23457;51.966;8.230;2023-04-19T08:38:07;102081.41;;;9.81;51.89
37610;BME280;23457;51.966;8.230;2023-04-19T08:40:34;102079.09;;;9.89;50.50
37610;BME280;23457;51.966;8.230;2023-04-19T08:43:04;102082.16;;;9.99;50.16
37610;BME280;23457;51.966;8.230;2023-04-19T08:45:32;102084.69;;;9.98;49.99
37610;BME280;23457;51.966;8.230;2023-04-19T08:48:00;102081.00;;;9.93;48.37
37610;BME280;23457;51.966;8.230;2023-04-19T08:50:29;102080.34;;;10.19;49.43
37610;BME280;23457;51.966;8.230;2023-04-19T08:53:11;102070.91;;;10.21;50.26
37610;BME280;23457;51.966;8.230;2023-04-19T08:55:41;102061.28;;;10.65;49.71
37610;BME280;23457;51.966;8.230;2023-04-19T08:58:31;102067.81;;;10.54;49.88
37610;BME280;23457;51.966;8.230;2023-04-19T09:01:18;102056.78;;;10.59;49.29
37610;BME280;23457;51.966;8.230;2023-04-19T09:04:02;102067.72;;;10.51;48.05
37610;BME280;23457;51.966;8.230;2023-04-19T09:06:51;102053.16;;;10.56;47.69
37610;BME280;23457;51.966;8.230;2023-04-19T09:09:20;102056.09;;;10.65;47.46
37610;BME280;23457;51.966;8.230;2023-04-19T09:11:50;102045.16;;;10.73;46.42
37610;BME280;23457;51.966;8.230;2023-04-19T09:14:18;102048.28;;;10.87;46.54
37610;BME280;23457;51.966;8.230;2023-04-19T09:16:45;102043.16;;;10.90;46.00
37610;BME280;23457;51.966;8.230;2023-04-19T09:19:12;102049.94;;;10.85;45.87
37610;BME280;23457;51.966;8.230;2023-04-19T09:21:49;102041.53;;;11.18;46.72
37610;BME280;23457;51.966;8.230;2023-04-19T09:24:18;102047.25;;;10.60;45.51
37610;BME280;23457;51.966;8.230;2023-04-19T09:26:53;102048.16;;;10.84;45.66
37610;BME280;23457;51.966;8.230;2023-04-19T09:29:20;102027.53;;;10.90;45.23
37610;BME280;23457;51.966;8.230;2023-04-19T09:31:56;102039.19;;;11.25;46.01
37610;BME280;23457;51.966;8.230;2023-04-19T09:34:23;102036.00;;;11.34;45.38
37610;BME280;23457;51.966;8.230;2023-04-19T09:36:50;102031.09;;;11.43;46.25
37610;BME280;23457;51.966;8.230;2023-04-19T09:39:34;102022.56;;;11.47;46.04
37610;BME280;23457;51.966;8.230;2023-04-19T09:42:03;102019.81;;;11.42;46.80
37610;BME280;23457;51.966;8.230;2023-04-19T09:44:29;102012.06;;;11.44;46.00
37610;BME280;23457;51.966;8.230;2023-04-19T09:47:23;102011.78;;;11.62;45.52
37610;BME280;23457;51.966;8.230;2023-04-19T09:50:07;102022.38;;;11.68;44.71
37610;BME280;23457;51.966;8.230;2023-04-19T09:52:49;102010.25;;;11.68;43.25
37610;BME280;23457;51.966;8.230;2023-04-19T09:55:16;102011.88;;;11.92;44.65
37610;BME280;23457;51.966;8.230;2023-04-19T09:57:52;102012.94;;;11.71;44.14
37610;BME280;23457;51.966;8.230;2023-04-19T10:00:19;102003.53;;;12.02;43.77
37610;BME280;23457;51.966;8.230;2023-04-19T10:02:50;101999.53;;;12.13;44.56
37610;BME280;23457;51.966;8.230;2023-04-19T10:05:22;101990.09;;;12.18;44.36
37610;BME280;23457;51.966;8.230;2023-04-19T10:07:51;101985.75;;;12.47;44.07
37610;BME280;23457;51.966;8.230;2023-04-19T10:10:23;101991.34;;;12.61;43.35
37610;BME280;23457;51.966;8.230;2023-04-19T10:13:10;101990.75;;;12.39;42.53
37610;BME280;23457;51.966;8.230;2023-04-19T10:15:46;101978.19;;;12.26;43.37
37610;BME280;23457;51.966;8.230;2023-04-19T10:18:19;101975.31;;;12.47;43.09
37610;BME280;23457;51.966;8.230;2023-04-19T10:20:54;101967.41;;;12.75;42.94
37610;BME280;23457;51.966;8.230;2023-04-19T10:23:23;101955.41;;;12.82;42.26
37610;BME280;23457;51.966;8.230;2023-04-19T10:25:55;101953.00;;;13.22;42.64
37610;BME280;23457;51.966;8.230;2023-04-19T10:28:22;101956.31;;;12.84;39.67
37610;BME280;23457;51.966;8.230;2023-04-19T10:30:54;101959.34;;;12.68;38.84
37610;BME280;23457;51.966;8.230;2023-04-19T10:33:27;101948.41;;;12.81;40.49
37610;BME280;23457;51.966;8.230;2023-04-19T10:35:55;101956.03;;;12.73;38.98
37610;BME280;23457;51.966;8.230;2023-04-19T10:41:02;101947.22;;;13.01;38.70
37610;BME280;23457;51.966;8.230;2023-04-19T10:43:31;101940.97;;;13.27;38.46
37610;BME280;23457;51.966;8.230;2023-04-19T10:46:06;101943.94;;;13.10;38.03
37610;BME280;23457;51.966;8.230;2023-04-19T10:48:38;101935.94;;;13.02;37.46
37610;BME280;23457;51.966;8.230;2023-04-19T10:51:10;101938.94;;;13.17;37.45
37610;BME280;23457;51.966;8.230;2023-04-19T10:53:47;101927.06;;;13.29;37.75
37610;BME280;23457;51.966;8.230;2023-04-19T10:56:16;101929.25;;;13.48;38.30
37610;BME280;23457;51.966;8.230;2023-04-19T11:01:41;101912.59;;;13.80;38.95
37610;BME280;23457;51.966;8.230;2023-04-19T11:12:09;101885.50;;;13.77;37.29
37610;BME280;23457;51.966;8.230;2023-04-19T11:14:39;101887.13;;;14.14;36.51
37610;BME280;23457;51.966;8.230;2023-04-19T11:17:32;101877.63;;;13.75;36.38
37610;BME280;23457;51.966;8.230;2023-04-19T11:20:01;101878.91;;;13.95;36.42
37610;BME280;23457;51.966;8.230;2023-04-19T11:22:39;101872.09;;;14.02;36.02
37610;BME280;23457;51.966;8.230;2023-04-19T11:25:16;101870.06;;;14.31;36.77
37610;BME280;23457;51.966;8.230;2023-04-19T11:27:46;101865.59;;;14.27;36.95
37610;BME280;23457;51.966;8.230;2023-04-19T11:30:18;101848.84;;;14.16;35.98
37610;BME280;23457;51.966;8.230;2023-04-19T11:32:50;101851.63;;;14.25;36.05
37610;BME280;23457;51.966;8.230;2023-04-19T11:37:49;101840.75;;;14.49;36.16
37610;BME280;23457;51.966;8.230;2023-04-19T11:40:20;101834.59;;;14.98;35.81
37610;BME280;23457;51.966;8.230;2023-04-19T11:42:53;101844.78;;;14.33;35.02
37610;BME280;23457;51.966;8.230;2023-04-19T11:45:38;101852.38;;;14.18;34.91
37610;BME280;23457;51.966;8.230;2023-04-19T11:48:07;101839.41;;;14.24;34.99
37610;BME280;23457;51.966;8.230;2023-04-19T11:50:40;101833.66;;;14.42;35.86
37610;BME280;23457;51.966;8.230;2023-04-19T11:53:16;101829.09;;;14.33;35.73
37610;BME280;23457;51.966;8.230;2023-04-19T11:55:44;101825.03;;;14.47;35.81
37610;BME280;23457;51.966;8.230;2023-04-19T12:01:23;101816.66;;;14.66;34.94
37610;BME280;23457;51.966;8.230;2023-04-19T12:03:53;101819.88;;;15.04;36.70
37610;BME280;23457;51.966;8.230;2023-04-19T12:08:51;101820.25;;;15.29;34.34
37610;BME280;23457;51.966;8.230;2023-04-19T12:11:22;101811.09;;;15.01;35.29
37610;BME280;23457;51.966;8.230;2023-04-19T12:14:12;101810.13;;;14.96;36.99
37610;BME280;23457;51.966;8.230;2023-04-19T12:16:39;101810.00;;;14.37;35.45
37610;BME280;23457;51.966;8.230;2023-04-19T12:19:14;101815.72;;;14.63;35.56
37610;BME280;23457;51.966;8.230;2023-04-19T12:21:43;101809.25;;;14.41;35.27
37610;BME280;23457;51.966;8.230;2023-04-19T12:24:13;101805.88;;;14.48;36.21
37610;BME280;23457;51.966;8.230;2023-04-19T12:26:53;101807.09;;;14.70;35.61
37610;BME280;23457;51.966;8.230;2023-04-19T12:29:25;101797.81;;;14.89;36.03
37610;BME280;23457;51.966;8.230;2023-04-19T12:31:52;101805.25;;;15.17;35.19
37610;BME280;23457;51.966;8.230;2023-04-19T12:34:19;101806.94;;;15.15;35.63
37610;BME280;23457;51.966;8.230;2023-04-19T12:36:46;101789.31;;;15.02;36.02
37610;BME280;23457;51.966;8.230;2023-04-19T12:39:12;101793.47;;;14.89;37.48
37610;BME280;23457;51.966;8.230;2023-04-19T12:41:39;101786.38;;;14.81;36.68
37610;BME280;23457;51.966;8.230;2023-04-19T12:44:06;101793.50;;;14.91;36.18
37610;BME280;23457;51.966;8.230;2023-04-19T12:46:33;101790.91;;;14.92;36.40
37610;BME280;23457;51.966;8.230;2023-04-19T12:48:59;101772.81;;;15.09;35.77
37610;BME280;23457;51.966;8.230;2023-04-19T12:51:26;101778.44;;;15.38;36.57
37610;BME280;23457;51.966;8.230;2023-04-19T12:53:53;101775.91;;;14.81;35.47
37610;BME280;23457;51.966;8.230;2023-04-19T12:56:19;101770.13;;;15.03;35.72
37610;BME280;23457;51.966;8.230;2023-04-19T12:58:46;101766.63;;;15.67;34.89
37610;BME280;23457;51.966;8.230;2023-04-19T13:01:13;101759.34;;;15.45;35.04
37610;BME280;23457;51.966;8.230;2023-04-19T13:03:39;101744.94;;;15.81;34.16
37610;BME280;23457;51.966;8.230;2023-04-19T13:06:06;101744.78;;;15.67;33.76
37610;BME280;23457;51.966;8.230;2023-04-19T13:08:33;101741.63;;;15.98;33.60
37610;BME280;23457;51.966;8.230;2023-04-19T13:11:11;101734.28;;;15.65;34.55
37610;BME280;23457;51.966;8.230;2023-04-19T13:13:38;101734.34;;;15.03;33.74
37610;BME280;23457;51.966;8.230;2023-04-19T13:16:05;101727.19;;;14.90;34.92
37610;BME280;23457;51.966;8.230;2023-04-19T13:18:33;101730.47;;;15.40;35.09
37610;BME280;23457;51.966;8.230;2023-04-19T13:21:00;101724.03;;;15.16;35.19
37610;BME280;23457;51.966;8.230;2023-04-19T13:23:27;101713.56;;;14.57;34.73
37610;BME280;23457;51.966;8.230;2023-04-19T13:25:53;101715.88;;;14.93;35.16
37610;BME280;23457;51.966;8.230;2023-04-19T13:28:20;101711.72;;;15.10;34.24